createdAt,value
2022-08-25T00:00:54.492Z,17.77
2022-08-25T00:02:56.769Z,10.10
2022-08-25T00:04:59.488Z,13.80
2022-08-25T00:07:03.410Z,14.75
2022-08-25T00:09:05.572Z,15.82
2022-08-25T00:11:08.706Z,15.88
2022-08-25T00:13:10.423Z,14.73
2022-08-25T00:15:12.257Z,21.90
2022-08-25T00:17:13.896Z,19.27
2022-08-25T00:19:18.042Z,13.82
2022-08-25T00:21:20.268Z,19.85
2022-08-25T00:23:21.908Z,15.67
2022-08-25T00:25:23.573Z,15.25
2022-08-25T00:27:25.917Z,13.07
2022-08-25T00:29:28.103Z,17.92
2022-08-25T00:31:38.581Z,17.33
2022-08-25T00:33:40.955Z,16.48
2022-08-25T00:35:42.555Z,16.73
2022-08-25T00:37:44.127Z,18.88
2022-08-25T00:39:46.187Z,16.13
2022-08-25T00:41:49.324Z,20.50
2022-08-25T00:43:56.510Z,14.02
2022-08-25T00:45:58.338Z,17.40
2022-08-25T00:48:00.884Z,18.85
2022-08-25T00:50:05.577Z,22.83
2022-08-25T00:52:10.687Z,19.50
2022-08-25T00:54:14.847Z,17.73
2022-08-25T00:56:17.466Z,15.77
2022-08-25T00:58:25.623Z,14.90
2022-08-25T01:00:30.163Z,16.55
2022-08-25T01:02:32.047Z,19.65
2022-08-25T01:04:34.495Z,20.00
2022-08-25T01:06:37.195Z,19.15
2022-08-25T01:08:38.948Z,15.23
2022-08-25T01:10:42.597Z,23.27
2022-08-25T01:12:44.305Z,21.80
2022-08-25T01:14:46.763Z,17.95
2022-08-25T01:16:51.131Z,18.83
2022-08-25T01:19:00.428Z,13.05
2022-08-25T01:21:02.055Z,17.55
2022-08-25T01:23:04.159Z,25.27
2022-08-25T01:25:13.322Z,21.15
2022-08-25T01:27:14.905Z,21.20
2022-08-25T01:29:22.870Z,23.80
2022-08-25T01:31:24.605Z,13.45
2022-08-25T01:33:26.434Z,18.55
2022-08-25T01:35:28.211Z,25.33
2022-08-25T01:37:29.914Z,18.85
2022-08-25T01:39:33.952Z,27.20
2022-08-25T01:41:51.540Z,18.33
2022-08-25T01:43:53.313Z,25.02
2022-08-25T01:45:54.937Z,21.40
2022-08-25T01:47:57.019Z,23.77
2022-08-25T01:49:58.542Z,15.77
2022-08-25T01:52:20.463Z,20.33
2022-08-25T01:54:23.698Z,25.48
2022-08-25T01:56:25.275Z,25.63
2022-08-25T01:58:32.409Z,22.27
2022-08-25T02:00:34.167Z,17.92
2022-08-25T02:02:35.821Z,23.10
2022-08-25T02:04:37.953Z,24.60
2022-08-25T02:06:40.950Z,26.35
2022-08-25T02:08:43.543Z,22.95
2022-08-25T02:10:46.360Z,22.33
2022-08-25T02:12:48.360Z,26.67
2022-08-25T02:14:49.953Z,28.60
2022-08-25T02:16:52.557Z,23.40
2022-08-25T02:18:55.691Z,28.27
2022-08-25T02:20:57.226Z,28.48
2022-08-25T02:22:58.907Z,27.73
2022-08-25T02:25:01.352Z,23.85
2022-08-25T02:27:04.111Z,22.50
2022-08-25T02:29:07.318Z,23.10
2022-08-25T02:31:09.301Z,31.10
2022-08-25T02:33:11.319Z,25.23
2022-08-25T02:35:13.287Z,25.05
2022-08-25T02:37:15.323Z,27.48
2022-08-25T02:39:17.141Z,29.05
2022-08-25T02:41:20.314Z,26.20
2022-08-25T02:43:22.179Z,24.10
2022-08-25T02:45:24.023Z,26.55
2022-08-25T02:47:27.149Z,25.52
2022-08-25T02:49:29.133Z,29.15
2022-08-25T02:51:31.992Z,31.80
2022-08-25T02:53:34.109Z,32.53
2022-08-25T02:55:36.052Z,33.78
2022-08-25T02:57:37.677Z,30.40
2022-08-25T02:59:39.471Z,29.02
2022-08-25T03:01:41.291Z,24.80
2022-08-25T03:03:44.396Z,35.30
2022-08-25T03:05:46.494Z,38.30
2022-08-25T03:07:48.267Z,36.50
2022-08-25T03:09:50.246Z,23.73
2022-08-25T03:11:51.808Z,29.75
2022-08-25T03:13:54.181Z,30.95
2022-08-25T03:15:55.815Z,39.47
2022-08-25T03:17:58.676Z,31.50
2022-08-25T03:20:01.837Z,28.83
2022-08-25T03:22:03.685Z,35.97
2022-08-25T03:24:06.190Z,30.35
2022-08-25T03:26:27.088Z,30.77
2022-08-25T03:28:31.277Z,31.58
2022-08-25T03:30:33.024Z,34.30
2022-08-25T03:32:34.936Z,27.53
2022-08-25T03:34:36.570Z,30.75
2022-08-25T03:36:38.347Z,34.00
2022-08-25T03:38:40.395Z,33.35
2022-08-25T03:40:42.067Z,33.38
2022-08-25T03:42:45.202Z,34.55
2022-08-25T03:44:47.409Z,26.67
2022-08-25T03:46:51.069Z,32.95
2022-08-25T03:48:52.800Z,27.33
2022-08-25T03:50:54.819Z,38.78
2022-08-25T03:52:56.759Z,32.10
2022-08-25T03:54:58.392Z,31.45
2022-08-25T03:57:00.238Z,35.08
2022-08-25T03:59:01.987Z,35.05
2022-08-25T04:01:04.215Z,30.80
2022-08-25T04:03:06.432Z,36.63
2022-08-25T04:05:08.489Z,28.00
2022-08-25T04:07:10.445Z,37.72
2022-08-25T04:09:12.629Z,29.98
2022-08-25T04:11:15.670Z,37.80
2022-08-25T04:13:18.354Z,32.75
2022-08-25T04:17:22.739Z,25.63
2022-08-25T04:19:24.278Z,31.58
2022-08-25T04:21:26.943Z,36.33
2022-08-25T04:23:28.489Z,38.05
2022-08-25T04:25:30.115Z,37.42
2022-08-25T04:27:31.925Z,39.05
2022-08-25T04:29:34.091Z,39.10
2022-08-25T04:31:36.394Z,39.70
2022-08-25T04:33:38.513Z,30.60
2022-08-25T04:35:41.243Z,44.20
2022-08-25T04:37:43.004Z,42.92
2022-08-25T04:39:45.058Z,40.03
2022-08-25T04:41:50.039Z,45.90
2022-08-25T04:43:51.963Z,40.78
2022-08-25T04:45:54.032Z,37.00
2022-08-25T04:48:00.757Z,37.13
2022-08-25T04:50:02.821Z,35.40
2022-08-25T04:52:04.687Z,46.77
2022-08-25T04:54:10.812Z,27.30
2022-08-25T04:56:14.575Z,42.00
2022-08-25T04:58:16.829Z,34.33
2022-08-25T05:00:18.454Z,41.72
2022-08-25T05:02:20.579Z,32.70
2022-08-25T05:04:28.032Z,36.47
2022-08-25T05:06:31.700Z,45.45
2022-08-25T05:08:33.506Z,44.03
2022-08-25T05:10:39.133Z,31.70
2022-08-25T05:12:40.735Z,52.50
2022-08-25T05:14:42.451Z,42.80
2022-08-25T05:16:44.247Z,41.97
2022-08-25T05:18:46.233Z,37.88
2022-08-25T05:20:48.023Z,40.33
2022-08-25T05:22:49.781Z,46.35
2022-08-25T05:24:51.905Z,37.17
2022-08-25T05:26:53.660Z,52.25
2022-08-25T05:28:56.466Z,40.28
2022-08-25T05:32:59.542Z,47.42
2022-08-25T05:35:01.501Z,43.40
2022-08-25T05:37:04.531Z,43.55
2022-08-25T05:39:06.325Z,53.95
2022-08-25T05:41:10.523Z,45.15
2022-08-25T05:43:14.598Z,35.45
2022-08-25T05:45:18.576Z,38.90
2022-08-25T05:47:22.579Z,40.47
2022-08-25T05:49:24.148Z,48.97
2022-08-25T05:51:26.748Z,41.65
2022-08-25T05:53:29.857Z,55.10
2022-08-25T05:55:35.782Z,35.38
2022-08-25T05:57:38.041Z,43.80
2022-08-25T05:59:40.478Z,47.33
2022-08-25T06:02:00.943Z,31.33
2022-08-25T06:04:03.142Z,38.20
2022-08-25T06:08:07.584Z,43.33
2022-08-25T06:10:13.420Z,39.55
2022-08-25T06:12:15.818Z,44.08
2022-08-25T06:14:17.568Z,36.88
2022-08-25T06:16:19.370Z,42.65
2022-08-25T06:18:21.638Z,47.95
2022-08-25T06:20:25.370Z,44.63
2022-08-25T06:22:27.831Z,33.97
2022-08-25T06:24:29.708Z,40.33
2022-08-25T06:26:31.856Z,42.10
2022-08-25T06:28:33.480Z,53.88
2022-08-25T06:30:35.438Z,43.00
2022-08-25T06:32:39.426Z,34.78
2022-08-25T06:34:41.158Z,44.83
2022-08-25T06:36:43.597Z,42.53
2022-08-25T06:38:53.959Z,54.45
2022-08-25T06:40:57.114Z,43.30
2022-08-25T06:42:59.045Z,45.75
2022-08-25T06:45:01.376Z,45.13
2022-08-25T06:49:06.180Z,40.13
2022-08-25T06:51:08.799Z,44.78
2022-08-25T06:53:15.507Z,44.72
2022-08-25T06:55:17.356Z,41.65
2022-08-25T06:57:19.556Z,37.80
2022-08-25T06:59:21.920Z,45.58
2022-08-25T07:01:26.911Z,43.60
2022-08-25T07:03:28.938Z,44.67
2022-08-25T07:05:42.931Z,44.53
2022-08-25T07:07:46.446Z,42.67
2022-08-25T07:09:48.284Z,40.53
2022-08-25T07:11:49.903Z,47.53
2022-08-25T07:13:52.218Z,48.95
2022-08-25T07:17:57.485Z,44.95
2022-08-25T07:19:59.595Z,44.25
2022-08-25T07:22:01.484Z,44.15
2022-08-25T07:24:10.769Z,49.20
2022-08-25T07:26:36.238Z,36.97
2022-08-25T07:28:36.132Z,49.47
2022-08-25T07:30:37.914Z,43.72
2022-08-25T07:32:42.224Z,46.63
2022-08-25T07:35:03.746Z,43.85
2022-08-25T07:37:05.779Z,35.47
2022-08-25T07:39:08.208Z,35.28
2022-08-25T07:41:09.774Z,42.38
2022-08-25T07:43:11.435Z,38.60
2022-08-25T07:45:13.774Z,56.75
2022-08-25T07:47:17.406Z,41.92
2022-08-25T07:49:26.065Z,42.33
2022-08-25T07:51:28.403Z,41.03
2022-08-25T07:53:29.943Z,42.63
2022-08-25T07:55:32.134Z,46.25
2022-08-25T07:57:34.371Z,48.95
2022-08-25T07:59:40.388Z,40.83
2022-08-25T08:01:42.803Z,36.22
2022-08-25T08:03:50.474Z,32.78
2022-08-25T08:05:56.413Z,43.85
2022-08-25T08:07:58.214Z,37.65
2022-08-25T08:10:32.827Z,48.92
2022-08-25T08:12:21.868Z,41.70
2022-08-25T08:14:24.414Z,52.35
2022-08-25T08:16:28.547Z,43.35
2022-08-25T08:18:30.335Z,49.05
2022-08-25T08:20:42.326Z,43.15
2022-08-25T08:22:45.310Z,46.33
2022-08-25T08:24:54.415Z,43.20
2022-08-25T08:26:59.302Z,41.35
2022-08-25T08:29:01.788Z,39.95
2022-08-25T08:33:10.034Z,42.25
2022-08-25T08:35:15.317Z,45.67
2022-08-25T08:37:17.063Z,34.85
2022-08-25T08:39:18.636Z,38.88
2022-08-25T08:42:10.869Z,39.80
2022-08-25T08:44:16.764Z,43.20
2022-08-25T08:46:19.044Z,42.92
2022-08-25T08:48:23.982Z,36.42
2022-08-25T08:50:44.009Z,38.22
2022-08-25T08:52:48.826Z,38.67
2022-08-25T08:54:56.863Z,30.75
2022-08-25T08:57:04.237Z,30.35
2022-08-25T08:59:09.928Z,33.22
2022-08-25T09:01:16.147Z,34.13
2022-08-25T09:03:24.079Z,29.60
2022-08-25T09:05:28.149Z,45.55
2022-08-25T09:07:36.935Z,40.58
2022-08-25T09:09:44.190Z,35.17
2022-08-25T09:12:08.648Z,46.60
2022-08-25T09:14:32.984Z,52.03
2022-08-25T09:16:57.415Z,34.45
2022-08-25T09:19:01.824Z,43.33
2022-08-25T09:21:15.735Z,50.45
2022-08-25T09:23:21.541Z,39.25
2022-08-25T09:28:00.150Z,42.90
2022-08-25T09:30:21.191Z,43.03
2022-08-25T09:32:34.868Z,37.30
2022-08-25T09:34:38.003Z,42.80
2022-08-25T09:36:39.658Z,37.38
2022-08-25T09:38:41.398Z,42.35
2022-08-25T09:40:45.156Z,38.90
2022-08-25T09:42:51.463Z,24.75
2022-08-25T09:44:59.384Z,27.48
2022-08-25T09:47:22.547Z,37.42
2022-08-25T09:49:30.600Z,27.17
2022-08-25T09:51:42.580Z,29.25
2022-08-25T09:54:10.759Z,28.48
2022-08-25T09:56:12.652Z,33.63
2022-08-25T09:58:22.266Z,30.02
2022-08-25T10:00:27.830Z,32.05
2022-08-25T10:02:29.889Z,23.77
2022-08-25T10:04:40.096Z,24.00
2022-08-25T10:06:47.269Z,24.58
2022-08-25T10:08:48.808Z,31.33
2022-08-25T10:10:54.104Z,25.07
2022-08-25T10:13:01.038Z,29.77
2022-08-25T10:15:29.085Z,21.58
2022-08-25T10:17:33.491Z,29.85
2022-08-25T10:19:35.613Z,26.27
2022-08-25T10:21:40.159Z,24.30
2022-08-25T10:23:46.302Z,20.50
2022-08-25T10:25:59.074Z,25.73
2022-08-25T10:28:11.121Z,24.23
2022-08-25T10:30:33.377Z,20.13
2022-08-25T10:32:54.079Z,18.38
2022-08-25T10:34:59.488Z,22.30
2022-08-25T10:37:01.380Z,19.33
2022-08-25T10:39:04.373Z,24.55
2022-08-25T10:41:28.937Z,22.77
2022-08-25T10:43:45.359Z,15.23
2022-08-25T10:45:54.177Z,14.90
2022-08-25T10:47:57.111Z,20.42
2022-08-25T10:50:04.015Z,13.15
2022-08-25T10:52:16.793Z,12.18
2022-08-25T10:54:21.099Z,14.77
2022-08-25T10:56:43.182Z,11.07
2022-08-25T10:58:57.086Z,19.35
2022-08-25T11:01:11.685Z,15.88
2022-08-25T11:03:27.440Z,15.65
2022-08-25T11:05:43.244Z,13.05
2022-08-25T11:07:50.620Z,13.77
2022-08-25T11:09:53.737Z,15.63
2022-08-25T11:11:57.674Z,15.93
2022-08-25T11:14:00.110Z,18.95
2022-08-25T11:16:17.244Z,10.48
2022-08-25T11:18:20.459Z,12.75
2022-08-25T11:20:43.551Z,19.95
2022-08-25T11:22:48.658Z,18.53
2022-08-25T11:25:11.251Z,19.73
2022-08-25T11:27:17.658Z,15.35
2022-08-25T11:29:26.226Z,14.25
2022-08-25T11:31:28.574Z,20.38
2022-08-25T11:33:30.755Z,14.35
2022-08-25T11:35:35.654Z,18.17
2022-08-25T11:37:58.886Z,26.23
2022-08-25T11:40:00.552Z,15.95
2022-08-25T11:42:02.183Z,14.73
2022-08-25T11:44:04.465Z,13.02
2022-08-25T11:46:33.857Z,18.65
2022-08-25T11:48:47.183Z,19.55
2022-08-25T11:50:58.084Z,17.58
2022-08-25T11:53:19.328Z,14.45
2022-08-25T11:55:34.851Z,17.20
2022-08-25T11:57:37.548Z,22.25
2022-08-25T12:01:40.622Z,11.30
2022-08-25T12:03:42.971Z,14.32
2022-08-25T12:05:51.954Z,11.75
2022-08-25T12:08:13.527Z,10.20
2022-08-25T12:10:25.755Z,13.32
2022-08-25T12:12:50.433Z,15.65
2022-08-25T12:14:52.109Z,12.18
2022-08-25T12:16:54.840Z,15.75
2022-08-25T12:19:16.643Z,15.45
2022-08-25T12:21:29.778Z,11.38
2022-08-25T12:23:36.273Z,17.17
2022-08-25T12:25:39.338Z,14.35
2022-08-25T12:27:48.072Z,12.10
2022-08-25T12:29:52.367Z,12.38
2022-08-25T12:31:59.222Z,10.63
2022-08-25T12:34:24.340Z,12.07
2022-08-25T12:36:31.233Z,13.25
2022-08-25T12:38:42.523Z,11.80
2022-08-25T12:40:45.752Z,9.13
2022-08-25T12:43:00.423Z,14.00
2022-08-25T12:45:15.702Z,9.55
2022-08-25T12:47:23.535Z,12.38
2022-08-25T12:49:30.167Z,13.43
2022-08-25T12:51:53.405Z,12.98
2022-08-25T12:53:55.034Z,16.02
2022-08-25T12:56:01.602Z,10.38
2022-08-25T12:58:04.391Z,9.35
2022-08-25T13:02:52.749Z,14.50
2022-08-25T13:05:00.397Z,9.00
2022-08-25T13:07:06.720Z,7.90
2022-08-25T13:09:18.266Z,11.85
2022-08-25T13:11:20.241Z,7.97
2022-08-25T13:13:31.303Z,11.48
2022-08-25T13:15:48.733Z,12.80
2022-08-25T13:18:12.299Z,9.38
2022-08-25T13:20:25.876Z,10.20
2022-08-25T13:22:27.766Z,10.30
2022-08-25T13:24:40.424Z,7.82
2022-08-25T13:26:48.352Z,7.75
2022-08-25T13:29:01.210Z,13.98
2022-08-25T13:31:05.746Z,11.45
2022-08-25T13:33:21.921Z,14.25
2022-08-25T13:35:32.209Z,8.85
2022-08-25T13:37:34.452Z,9.80
2022-08-25T13:39:56.468Z,10.30
2022-08-25T13:42:00.926Z,14.90
2022-08-25T13:44:06.619Z,11.93
2022-08-25T13:46:18.694Z,10.27
2022-08-25T13:48:51.471Z,11.25
2022-08-25T13:51:06.225Z,13.82
2022-08-25T13:53:16.893Z,9.88
2022-08-25T13:55:27.375Z,13.60
2022-08-25T13:57:30.586Z,17.80
2022-08-25T13:59:40.025Z,10.13
2022-08-25T14:01:47.744Z,13.73
2022-08-25T14:03:52.039Z,11.25
2022-08-25T14:06:04.739Z,10.80
2022-08-25T14:10:41.231Z,16.23
2022-08-25T14:12:46.400Z,11.80
2022-08-25T14:14:57.415Z,9.82
2022-08-25T14:17:16.412Z,11.00
2022-08-25T14:19:25.514Z,11.57
2022-08-25T14:21:28.879Z,12.73
2022-08-25T14:23:30.733Z,12.48
2022-08-25T14:25:32.916Z,9.20
2022-08-25T14:27:38.917Z,14.90
2022-08-25T14:29:53.112Z,11.80
2022-08-25T14:31:55.383Z,11.80
2022-08-25T14:34:00.253Z,13.57
2022-08-25T14:36:04.731Z,13.07
2022-08-25T14:38:11.024Z,7.85
2022-08-25T14:40:15.460Z,10.32
2022-08-25T14:42:17.153Z,8.00
2022-08-25T14:44:19.255Z,11.20
2022-08-25T14:46:26.002Z,11.85
2022-08-25T14:48:31.442Z,10.82
2022-08-25T14:50:33.611Z,8.45
2022-08-25T14:52:35.544Z,11.40
2022-08-25T14:54:37.851Z,10.57
2022-08-25T14:56:43.137Z,14.95
2022-08-25T14:58:48.435Z,9.68
2022-08-25T15:00:53.006Z,10.85
2022-08-25T15:02:54.837Z,10.15
2022-08-25T15:04:58.042Z,9.05
2022-08-25T15:07:01.035Z,9.63
2022-08-25T15:09:08.192Z,9.43
2022-08-25T15:11:10.204Z,10.90
2022-08-25T15:13:11.806Z,10.30
2022-08-25T15:15:13.428Z,8.25
2022-08-25T15:17:15.591Z,9.13
2022-08-25T15:19:18.494Z,11.32
2022-08-25T15:21:21.492Z,19.95
2022-08-25T15:23:23.406Z,8.45
2022-08-25T15:25:25.287Z,9.05
2022-08-25T15:27:26.972Z,13.05
2022-08-25T15:29:34.759Z,8.18
2022-08-25T15:31:37.123Z,11.60
2022-08-25T15:33:39.192Z,10.38
2022-08-25T15:35:41.550Z,9.50
2022-08-25T15:37:46.993Z,8.00
2022-08-25T15:39:49.235Z,8.50
2022-08-25T15:41:54.063Z,8.90
2022-08-25T15:43:57.908Z,10.30
2022-08-25T15:45:59.995Z,10.93
2022-08-25T15:48:02.016Z,8.63
2022-08-25T15:50:07.315Z,11.73
2022-08-25T15:52:09.694Z,11.40
2022-08-25T15:56:26.679Z,13.20
2022-08-25T15:58:28.706Z,14.43
2022-08-25T16:00:31.827Z,8.95
2022-08-25T16:02:34.723Z,12.50
2022-08-25T16:06:38.751Z,9.70
2022-08-25T16:08:40.906Z,11.88
2022-08-25T16:10:44.251Z,11.35
2022-08-25T16:12:46.419Z,9.18
2022-08-25T16:14:48.067Z,14.70
2022-08-25T16:16:50.063Z,10.20
2022-08-25T16:18:52.218Z,19.50
2022-08-25T16:20:54.021Z,13.63
2022-08-25T16:22:56.273Z,12.75
2022-08-25T16:27:11.614Z,11.98
2022-08-25T16:29:15.483Z,16.48
2022-08-25T16:31:19.007Z,12.23
2022-08-25T16:33:21.183Z,13.60
2022-08-25T16:35:24.966Z,13.38
2022-08-25T16:37:26.932Z,15.27
2022-08-25T16:39:28.880Z,13.43
2022-08-25T16:41:34.231Z,14.60
2022-08-25T16:43:38.285Z,13.52
2022-08-25T16:45:40.236Z,13.80
2022-08-25T16:47:43.494Z,17.70
2022-08-25T16:49:46.350Z,8.50
2022-08-25T16:51:48.306Z,11.68
2022-08-25T16:54:22.043Z,19.05
2022-08-25T16:56:28.180Z,9.20
2022-08-25T16:58:30.285Z,10.13
2022-08-25T17:00:32.181Z,20.48
2022-08-25T17:02:34.267Z,17.40
2022-08-25T17:06:39.863Z,9.98
2022-08-25T17:08:41.853Z,18.85
2022-08-25T17:10:45.807Z,15.18
2022-08-25T17:12:47.919Z,11.55
2022-08-25T17:16:55.101Z,12.75
2022-08-25T17:18:58.128Z,14.45
2022-08-25T17:21:04.200Z,14.73
2022-08-25T17:23:12.013Z,15.75
2022-08-25T17:25:14.962Z,10.88
2022-08-25T17:27:18.414Z,21.00
2022-08-25T17:29:20.630Z,13.50
2022-08-25T17:31:23.015Z,12.70
2022-08-25T17:33:26.563Z,10.18
2022-08-25T17:35:30.003Z,12.15
2022-08-25T17:37:31.708Z,8.00
2022-08-25T17:39:34.021Z,11.48
2022-08-25T17:41:37.766Z,13.10
2022-08-25T17:43:41.239Z,19.27
2022-08-25T17:45:43.160Z,10.20
2022-08-25T17:47:45.078Z,18.70
2022-08-25T17:49:46.732Z,17.30
2022-08-25T17:51:48.699Z,15.45
2022-08-25T17:53:52.766Z,11.00
2022-08-25T17:56:02.584Z,15.15
2022-08-25T17:58:04.500Z,16.05
2022-08-25T18:00:12.942Z,18.40
2022-08-25T18:02:15.360Z,12.88
2022-08-25T18:04:19.557Z,12.98
2022-08-25T18:06:22.051Z,9.57
2022-08-25T18:08:32.197Z,13.07
2022-08-25T18:10:38.286Z,12.90
2022-08-25T18:12:40.026Z,10.77
2022-08-25T18:14:41.659Z,11.05
2022-08-25T18:16:47.999Z,14.25
2022-08-25T18:18:50.984Z,14.17
2022-08-25T18:20:53.166Z,11.60
2022-08-25T18:22:57.533Z,10.13
2022-08-25T18:25:01.375Z,9.30
2022-08-25T18:27:05.459Z,14.48
2022-08-25T18:29:12.159Z,11.57
2022-08-25T18:31:14.095Z,9.32
2022-08-25T18:33:16.011Z,15.60
2022-08-25T18:35:21.352Z,13.65
2022-08-25T18:37:43.017Z,10.82
2022-08-25T18:40:04.030Z,7.35
2022-08-25T18:42:08.800Z,17.23
2022-08-25T18:44:11.049Z,25.35
2022-08-25T18:46:12.897Z,11.48
2022-08-25T18:48:15.637Z,8.87
2022-08-25T18:50:18.118Z,13.02
2022-08-25T18:52:23.866Z,12.52
2022-08-25T18:54:25.683Z,10.02
2022-08-25T18:56:28.513Z,13.73
2022-08-25T18:58:30.147Z,11.57
2022-08-25T19:00:32.619Z,14.77
2022-08-25T19:02:34.323Z,12.05
2022-08-25T19:04:36.534Z,12.82
2022-08-25T19:06:38.930Z,11.23
2022-08-25T19:08:45.582Z,12.40
2022-08-25T19:10:50.187Z,22.02
2022-08-25T19:12:54.007Z,13.05
2022-08-25T19:14:58.752Z,14.13
2022-08-25T19:17:01.607Z,17.77
2022-08-25T19:19:06.455Z,12.32
2022-08-25T19:21:08.666Z,9.25
2022-08-25T19:23:11.163Z,8.95
2022-08-25T19:27:15.147Z,15.95
2022-08-25T19:29:17.707Z,11.40
2022-08-25T19:31:21.633Z,13.55
2022-08-25T19:33:42.795Z,11.70
2022-08-25T19:35:47.531Z,13.23
2022-08-25T19:37:51.203Z,11.30
2022-08-25T19:41:57.653Z,11.13
2022-08-25T19:44:02.477Z,19.43
2022-08-25T19:46:05.202Z,9.88
2022-08-25T19:48:07.784Z,14.50
2022-08-25T19:50:11.152Z,18.13
2022-08-25T19:52:24.784Z,10.35
2022-08-25T19:54:31.806Z,18.00
2022-08-25T19:56:35.199Z,11.50
2022-08-25T19:58:38.113Z,10.85
2022-08-25T20:00:42.549Z,13.40
2022-08-25T20:02:44.848Z,15.93
2022-08-25T20:04:49.917Z,12.90
2022-08-25T20:06:52.667Z,15.95
2022-08-25T20:09:00.606Z,19.52
2022-08-25T20:11:03.067Z,16.60
2022-08-25T20:13:05.456Z,23.00
2022-08-25T20:15:09.216Z,13.55
2022-08-25T20:17:23.200Z,19.63
2022-08-25T20:19:26.631Z,26.25
2022-08-25T20:21:28.546Z,11.00
2022-08-25T20:23:51.363Z,13.13
2022-08-25T20:25:53.511Z,17.63
2022-08-25T20:27:55.952Z,20.17
2022-08-25T20:29:58.087Z,13.63
2022-08-25T20:31:59.705Z,11.73
2022-08-25T20:34:02.878Z,15.77
2022-08-25T20:36:04.982Z,13.02
2022-08-25T20:38:07.395Z,14.13
2022-08-25T20:40:10.024Z,18.25
2022-08-25T20:42:11.759Z,14.77
2022-08-25T20:44:13.422Z,16.00
2022-08-25T20:46:16.277Z,15.55
2022-08-25T20:48:18.454Z,13.48
2022-08-25T20:50:20.416Z,17.50
2022-08-25T20:52:22.327Z,16.05
2022-08-25T20:54:25.616Z,15.07
2022-08-25T20:56:30.436Z,13.70
2022-08-25T20:58:32.247Z,10.60
2022-08-25T21:00:34.103Z,22.38
2022-08-25T21:02:37.976Z,19.08
2022-08-25T21:04:39.999Z,11.43
2022-08-25T21:06:52.141Z,14.52
2022-08-25T21:08:53.767Z,18.05
2022-08-25T21:10:56.067Z,13.23
2022-08-25T21:12:57.722Z,10.32
2022-08-25T21:14:59.341Z,19.33
2022-08-25T21:17:01.235Z,19.20
2022-08-25T21:19:04.031Z,19.63
2022-08-25T21:21:14.495Z,14.20
2022-08-25T21:23:30.945Z,16.02
2022-08-25T21:25:52.906Z,14.20
2022-08-25T21:27:54.604Z,13.32
2022-08-25T21:29:56.391Z,10.55
2022-08-25T21:31:59.689Z,13.15
2022-08-25T21:34:01.936Z,13.30
2022-08-25T21:36:04.791Z,12.10
2022-08-25T21:38:06.530Z,13.57
2022-08-25T21:40:08.765Z,17.75
2022-08-25T21:44:19.116Z,14.40
2022-08-25T21:46:22.507Z,18.70
2022-08-25T21:48:26.092Z,14.27
2022-08-25T21:50:28.289Z,18.13
2022-08-25T21:52:29.952Z,13.95
2022-08-25T21:54:32.257Z,10.98
2022-08-25T21:56:33.842Z,10.48
2022-08-25T21:58:36.202Z,13.00
2022-08-25T22:00:38.170Z,15.35
2022-08-25T22:04:47.062Z,19.33
2022-08-25T22:06:50.422Z,13.00
2022-08-25T22:08:52.115Z,15.73
2022-08-25T22:10:55.666Z,18.08
2022-08-25T22:12:57.462Z,19.05
2022-08-25T22:14:59.388Z,15.80
2022-08-25T22:17:01.014Z,16.70
2022-08-25T22:19:03.697Z,24.80
2022-08-25T22:21:07.327Z,15.77
2022-08-25T22:23:11.284Z,19.75
2022-08-25T22:25:23.527Z,17.40
2022-08-25T22:27:26.841Z,19.65
2022-08-25T22:29:28.471Z,16.98
2022-08-25T22:31:32.372Z,16.75
2022-08-25T22:33:34.148Z,11.80
2022-08-25T22:35:36.929Z,15.40
2022-08-25T22:37:41.570Z,16.90
2022-08-25T22:39:43.667Z,9.02
2022-08-25T22:41:45.807Z,17.05
2022-08-25T22:43:47.780Z,19.05
2022-08-25T22:45:49.663Z,17.23
2022-08-25T22:47:55.382Z,20.88
2022-08-25T22:49:58.312Z,18.95
2022-08-25T22:52:02.205Z,16.75
2022-08-25T22:56:07.566Z,11.95
2022-08-25T22:58:10.142Z,17.67
2022-08-25T23:00:13.802Z,10.15
2022-08-25T23:02:15.578Z,20.52
2022-08-25T23:04:17.856Z,14.32
2022-08-25T23:06:24.623Z,16.80
2022-08-25T23:08:38.979Z,12.35
2022-08-25T23:10:47.410Z,13.55
2022-08-25T23:12:49.119Z,16.05
2022-08-25T23:14:51.415Z,13.43
2022-08-25T23:16:53.371Z,15.93
2022-08-25T23:18:57.860Z,21.63
2022-08-25T23:21:24.315Z,16.63
2022-08-25T23:23:26.418Z,20.27
2022-08-25T23:25:28.114Z,18.48
2022-08-25T23:27:30.239Z,19.80
2022-08-25T23:29:33.065Z,17.17
2022-08-25T23:33:36.351Z,23.02
2022-08-25T23:35:37.932Z,19.73
2022-08-25T23:37:40.639Z,19.77
2022-08-25T23:39:45.419Z,19.00
2022-08-25T23:41:47.243Z,21.33
2022-08-25T23:43:50.467Z,23.17
2022-08-25T23:45:52.219Z,22.27
2022-08-25T23:47:53.891Z,23.67
2022-08-25T23:49:55.577Z,16.83
2022-08-25T23:51:57.363Z,21.25
2022-08-25T23:54:00.139Z,23.27
2022-08-25T23:58:04.969Z,20.88
